Time;durP1;ratioP1;P1;durP2;ratioP2;P2;SDS_P1;SDS_P2;PMS_P1;PMS_P2;Temp;Humidity;BMP_temperature;BMP_pressure;BME280_temperature;BME280_humidity;BME280_pressure;Samples;Min_cycle;Max_cycle;Signal;HPM_P1;HPM_P2
2022/07/22 00:00:00;;;;;;;5.85;1.48;;;16.40;99.90;;;;;;5040763;28;20283;-93
2022/07/22 00:02:26;;;;;;;4.22;1.60;;;16.40;99.90;;;;;;5042698;28;20109;-93
2022/07/22 00:04:52;;;;;;;5.30;1.30;;;16.40;99.90;;;;;;5040223;28;20034;-95
2022/07/22 00:07:17;;;;;;;4.65;1.80;;;16.30;99.90;;;;;;5022475;28;20382;-94
2022/07/22 00:09:43;;;;;;;2.47;1.35;;;16.30;99.90;;;;;;5025150;28;20060;-96
2022/07/22 00:12:09;;;;;;;9.55;2.78;;;16.30;99.90;;;;;;5025477;28;20017;-95
2022/07/22 00:14:35;;;;;;;6.28;1.60;;;16.30;99.90;;;;;;5025916;28;20060;-94
2022/07/22 00:17:01;;;;;;;7.32;3.00;;;16.30;99.90;;;;;;5040852;28;20024;-89
2022/07/22 00:19:27;;;;;;;3.35;1.30;;;16.30;99.90;;;;;;5041485;28;20028;-92
2022/07/22 00:21:52;;;;;;;5.07;1.40;;;16.40;99.90;;;;;;5041860;28;20014;-93
2022/07/22 00:24:19;;;;;;;3.97;1.40;;;16.40;99.90;;;;;;5041738;28;20033;-91
2022/07/22 00:26:44;;;;;;;11.57;1.58;;;16.40;99.90;;;;;;5053401;28;20061;-96
2022/07/22 00:29:10;;;;;;;6.13;1.60;;;16.40;99.90;;;;;;5034417;28;20097;-96
2022/07/22 00:31:36;;;;;;;5.82;1.60;;;16.50;99.90;;;;;;5027503;28;20047;-96
2022/07/22 00:34:03;;;;;;;5.13;1.30;;;16.50;99.90;;;;;;5028511;28;20021;-95
2022/07/22 00:36:30;;;;;;;5.28;1.40;;;16.50;99.90;;;;;;5028425;28;20029;-96
2022/07/22 00:38:56;;;;;;;4.03;1.50;;;16.50;99.90;;;;;;5029368;28;20053;-95
2022/07/22 00:41:22;;;;;;;5.93;1.35;;;16.50;99.90;;;;;;5044453;28;20022;-95
2022/07/22 00:44:00;;;;;;;5.63;1.50;;;16.50;99.90;;;;;;5027343;28;20045;-94
2022/07/22 00:46:26;;;;;;;2.60;1.40;;;16.50;99.90;;;;;;5028656;28;20021;-92
2022/07/22 00:48:53;;;;;;;4.47;1.45;;;16.50;99.90;;;;;;5026872;28;20029;-95
2022/07/22 00:51:20;;;;;;;3.40;1.30;;;16.40;99.90;;;;;;5025723;28;20060;-96
2022/07/22 00:53:47;;;;;;;3.70;1.92;;;16.40;99.90;;;;;;5042493;28;20048;-94
2022/07/22 00:56:14;;;;;;;7.07;2.10;;;16.40;99.90;;;;;;5024245;28;20029;-93
2022/07/22 00:58:40;;;;;;;4.43;1.60;;;16.30;99.90;;;;;;5042317;28;20029;-95
2022/07/22 01:01:06;;;;;;;6.88;2.63;;;16.30;99.90;;;;;;5040812;28;20053;-95
2022/07/22 01:03:32;;;;;;;3.63;1.27;;;16.30;99.90;;;;;;5025277;28;20057;-96
2022/07/22 01:05:57;;;;;;;5.38;1.70;;;16.30;99.90;;;;;;5042332;28;20048;-95
2022/07/22 01:08:23;;;;;;;2.90;1.40;;;16.20;99.90;;;;;;5028022;28;20021;-94
2022/07/22 01:10:49;;;;;;;2.90;1.52;;;16.20;99.90;;;;;;5036998;28;20029;-95
2022/07/22 01:13:15;;;;;;;8.43;1.92;;;16.10;99.90;;;;;;5039027;28;20043;-96
2022/07/22 01:15:41;;;;;;;6.20;1.50;;;16.10;99.90;;;;;;5022058;28;20026;-95
2022/07/22 01:18:06;;;;;;;6.45;1.85;;;16.10;99.90;;;;;;5020955;28;20036;-95
2022/07/22 01:20:33;;;;;;;5.47;1.30;;;16.10;99.90;;;;;;5022165;28;20360;-94
2022/07/22 01:22:59;;;;;;;3.65;1.60;;;16.10;99.90;;;;;;5023954;28;20028;-96
2022/07/22 01:25:25;;;;;;;3.90;1.38;;;16.00;99.90;;;;;;5023239;28;20112;-95
2022/07/22 01:27:51;;;;;;;3.78;1.45;;;16.00;99.90;;;;;;5022806;28;20136;-95
2022/07/22 01:30:17;;;;;;;7.65;1.60;;;16.00;99.90;;;;;;5026524;28;20648;-96
2022/07/22 01:32:42;;;;;;;4.03;1.40;;;15.90;99.90;;;;;;5042341;28;20063;-95
2022/07/22 01:35:09;;;;;;;4.60;1.80;;;15.90;99.90;;;;;;5025535;28;20050;-95
2022/07/22 01:37:36;;;;;;;6.03;1.58;;;15.90;99.90;;;;;;5043039;28;20478;-95
2022/07/22 01:40:02;;;;;;;4.25;1.80;;;15.90;99.90;;;;;;5029079;28;20056;-96
2022/07/22 01:42:28;;;;;;;6.38;1.67;;;15.80;99.90;;;;;;5028876;28;20021;-96
2022/07/22 01:44:54;;;;;;;4.13;1.83;;;15.80;99.90;;;;;;5023683;28;20048;-94
2022/07/22 01:47:19;;;;;;;7.63;1.58;;;15.80;99.90;;;;;;5041988;28;20021;-93
2022/07/22 01:49:45;;;;;;;4.00;1.70;;;15.80;99.90;;;;;;5021067;28;20462;-93
2022/07/22 01:52:11;;;;;;;4.53;1.60;;;15.80;99.90;;;;;;5018459;28;20076;-93
2022/07/22 01:54:37;;;;;;;5.30;1.70;;;15.70;99.90;;;;;;5023088;28;20033;-95
2022/07/22 01:57:03;;;;;;;6.45;1.80;;;15.70;99.90;;;;;;5025059;28;20029;-94
2022/07/22 01:59:28;;;;;;;5.53;1.48;;;15.70;99.90;;;;;;5026653;28;20072;-96
2022/07/22 02:01:54;;;;;;;3.10;1.60;;;15.70;99.90;;;;;;5025401;28;20022;-94
2022/07/22 02:04:20;;;;;;;5.60;1.60;;;15.60;99.90;;;;;;5034995;28;20069;-90
2022/07/22 02:06:46;;;;;;;2.28;1.63;;;15.60;99.90;;;;;;5040269;28;20037;-89
2022/07/22 02:09:13;;;;;;;2.38;1.60;;;15.60;99.90;;;;;;5038616;28;20113;-93
2022/07/22 02:11:39;;;;;;;4.88;1.92;;;15.60;99.90;;;;;;5045205;28;20029;-95
2022/07/22 02:14:05;;;;;;;2.67;1.70;;;15.60;99.90;;;;;;5026246;28;20453;-96
2022/07/22 02:16:31;;;;;;;8.35;1.70;;;15.60;99.90;;;;;;5028784;28;20033;-94
2022/07/22 02:18:56;;;;;;;4.97;1.83;;;15.60;99.90;;;;;;5031437;28;20025;-90
2022/07/22 02:21:23;;;;;;;4.72;1.95;;;15.60;99.90;;;;;;5037541;28;20041;-90
2022/07/22 02:23:49;;;;;;;3.13;1.60;;;15.60;99.90;;;;;;5038736;28;20052;-91
2022/07/22 02:26:15;;;;;;;6.10;1.73;;;15.70;99.90;;;;;;5039612;28;20073;-91
2022/07/22 02:28:41;;;;;;;5.00;2.00;;;15.70;99.90;;;;;;5057242;28;20025;-91
2022/07/22 02:31:08;;;;;;;6.60;1.70;;;15.80;99.90;;;;;;5038541;28;20010;-92
2022/07/22 02:33:34;;;;;;;3.63;1.85;;;15.80;99.90;;;;;;5038992;28;20026;-91
2022/07/22 02:36:00;;;;;;;6.82;1.50;;;15.80;99.90;;;;;;5051947;28;20067;-94
2022/07/22 02:38:25;;;;;;;2.97;1.60;;;15.80;99.90;;;;;;5034143;28;20034;-94
2022/07/22 02:40:51;;;;;;;5.70;1.85;;;15.80;99.90;;;;;;5035812;28;20014;-94
2022/07/22 02:43:17;;;;;;;3.90;1.63;;;15.80;99.90;;;;;;5037915;28;20068;-92
2022/07/22 02:45:43;;;;;;;2.92;1.30;;;15.80;99.90;;;;;;5035010;28;20089;-89
2022/07/22 02:48:08;;;;;;;3.28;1.52;;;15.80;99.90;;;;;;5039648;28;20025;-88
2022/07/22 02:50:35;;;;;;;7.03;1.52;;;15.70;99.90;;;;;;5039165;28;20014;-93
2022/07/22 02:53:01;;;;;;;4.65;1.60;;;15.70;99.90;;;;;;5038707;28;20022;-94
2022/07/22 02:55:27;;;;;;;5.90;1.98;;;15.70;99.90;;;;;;5037868;28;20029;-93
2022/07/22 02:57:52;;;;;;;2.75;1.92;;;15.60;99.90;;;;;;5038035;28;20018;-94
2022/07/22 03:00:18;;;;;;;5.28;1.55;;;15.60;99.90;;;;;;5039036;28;20065;-91
2022/07/22 03:02:44;;;;;;;6.68;1.88;;;15.60;99.90;;;;;;5038587;28;20009;-92
2022/07/22 03:05:10;;;;;;;6.32;1.85;;;15.60;99.90;;;;;;5054784;28;20038;-93
2022/07/22 03:07:36;;;;;;;3.28;1.63;;;15.50;99.90;;;;;;5038471;28;20044;-91
2022/07/22 03:10:02;;;;;;;3.30;1.75;;;15.50;99.90;;;;;;5038530;28;20039;-94
2022/07/22 03:12:28;;;;;;;6.20;1.55;;;15.40;99.90;;;;;;5041881;28;20033;-93
2022/07/22 03:14:54;;;;;;;3.33;1.70;;;15.40;99.90;;;;;;5041888;28;20036;-93
2022/07/22 03:17:20;;;;;;;2.42;1.40;;;15.40;99.90;;;;;;5042947;28;20052;-93
2022/07/22 03:19:45;;;;;;;5.55;1.70;;;15.40;99.90;;;;;;5031519;28;20030;-95
2022/07/22 03:22:11;;;;;;;3.53;1.50;;;15.30;99.90;;;;;;5030249;28;20036;-91
2022/07/22 03:24:37;;;;;;;5.55;2.17;;;15.40;99.90;;;;;;5036842;28;20041;-95
2022/07/22 03:27:02;;;;;;;5.47;1.88;;;15.40;99.90;;;;;;5036240;28;20092;-93
2022/07/22 03:29:28;;;;;;;4.38;1.35;;;15.50;99.90;;;;;;5040385;28;20020;-92
2022/07/22 03:31:54;;;;;;;6.43;1.60;;;15.60;99.90;;;;;;5042867;28;20025;-91
2022/07/22 03:34:19;;;;;;;10.50;2.05;;;15.60;99.90;;;;;;5041756;28;20033;-89
2022/07/22 03:36:45;;;;;;;7.30;1.60;;;15.60;99.90;;;;;;5042878;28;20018;-93
2022/07/22 03:39:11;;;;;;;6.07;1.75;;;15.70;99.90;;;;;;5041599;28;20038;-94
2022/07/22 03:41:37;;;;;;;3.10;1.40;;;15.70;99.90;;;;;;5040762;28;20049;-91
2022/07/22 03:44:03;;;;;;;5.97;1.73;;;15.70;99.90;;;;;;5040836;28;20033;-93
2022/07/22 03:46:29;;;;;;;3.70;1.40;;;15.70;99.90;;;;;;5041218;28;20014;-92
2022/07/22 03:48:54;;;;;;;3.75;1.65;;;15.70;99.90;;;;;;5041509;28;20021;-93
2022/07/22 03:51:20;;;;;;;11.02;1.90;;;15.70;99.90;;;;;;5041559;28;20025;-90
2022/07/22 03:53:46;;;;;;;4.90;1.50;;;15.70;99.90;;;;;;5025253;28;20061;-92
2022/07/22 03:56:11;;;;;;;3.15;1.63;;;15.60;99.90;;;;;;5041449;28;20018;-91
2022/07/22 03:58:37;;;;;;;5.88;1.60;;;15.60;99.90;;;;;;5040694;28;20046;-94
2022/07/22 04:01:03;;;;;;;3.55;1.35;;;15.60;99.90;;;;;;5037571;28;20067;-94
2022/07/22 04:03:29;;;;;;;5.05;1.40;;;15.50;99.90;;;;;;5035268;28;20064;-92
2022/07/22 04:05:54;;;;;;;5.43;1.90;;;15.40;99.90;;;;;;5034077;28;20120;-94
2022/07/22 04:08:20;;;;;;;6.50;1.65;;;15.40;99.90;;;;;;5036338;28;20026;-95
2022/07/22 04:10:46;;;;;;;6.20;1.73;;;15.40;99.90;;;;;;5035662;28;20037;-95
2022/07/22 04:13:12;;;;;;;6.53;1.90;;;15.30;99.90;;;;;;5041859;28;20029;-91
2022/07/22 04:15:38;;;;;;;5.68;2.35;;;15.30;99.90;;;;;;5041098;28;20288;-94
2022/07/22 04:18:03;;;;;;;4.93;1.80;;;15.30;99.90;;;;;;5041211;28;20044;-93
2022/07/22 04:20:29;;;;;;;6.53;1.73;;;15.30;99.90;;;;;;5040883;28;20033;-93
2022/07/22 04:22:55;;;;;;;4.57;1.63;;;15.30;99.90;;;;;;5039368;28;20014;-92
2022/07/22 04:25:20;;;;;;;5.20;2.55;;;15.30;99.90;;;;;;5037828;28;20041;-94
2022/07/22 04:27:46;;;;;;;6.70;1.98;;;15.30;99.90;;;;;;5040179;28;20065;-92
2022/07/22 04:30:12;;;;;;;5.38;1.83;;;15.30;99.90;;;;;;5041583;28;20013;-95
2022/07/22 04:32:38;;;;;;;5.05;1.70;;;15.20;99.90;;;;;;5030687;28;20120;-96
2022/07/22 04:35:04;;;;;;;2.92;2.33;;;15.30;99.90;;;;;;5023599;28;20038;-95
2022/07/22 04:37:30;;;;;;;4.00;1.70;;;15.30;99.90;;;;;;5026103;28;20033;-96
2022/07/22 04:39:56;;;;;;;5.38;1.77;;;15.20;99.90;;;;;;5026816;28;20055;-95
2022/07/22 04:42:22;;;;;;;4.13;1.85;;;15.20;99.90;;;;;;5026287;28;20034;-96
2022/07/22 04:44:47;;;;;;;8.07;1.80;;;15.20;99.90;;;;;;5028852;28;20045;-95
2022/07/22 04:47:13;;;;;;;5.88;2.00;;;15.20;99.90;;;;;;5033201;28;20093;-96
2022/07/22 04:49:39;;;;;;;12.32;2.33;;;15.20;99.90;;;;;;5033730;28;20029;-96
2022/07/22 04:52:05;;;;;;;6.05;1.80;;;15.20;99.90;;;;;;5034020;28;20031;-95
2022/07/22 04:54:31;;;;;;;5.20;1.60;;;15.20;99.90;;;;;;5032784;28;20037;-94
2022/07/22 04:56:57;;;;;;;6.80;2.08;;;15.20;99.90;;;;;;5037917;28;20058;-95
2022/07/22 04:59:22;;;;;;;3.25;1.80;;;15.20;99.90;;;;;;5037158;28;20027;-94
2022/07/22 05:01:48;;;;;;;4.97;1.90;;;15.20;99.90;;;;;;5038989;28;20021;-92
2022/07/22 05:04:14;;;;;;;2.72;1.75;;;15.20;99.90;;;;;;5040989;28;20041;-93
2022/07/22 05:06:39;;;;;;;4.97;2.00;;;15.20;99.90;;;;;;5041102;28;20029;-93
2022/07/22 05:09:06;;;;;;;7.07;2.28;;;15.20;99.90;;;;;;5039557;28;20032;-96
2022/07/22 05:11:32;;;;;;;7.18;1.90;;;15.20;99.90;;;;;;5020310;28;20029;-94
2022/07/22 05:13:57;;;;;;;3.28;2.20;;;15.20;99.90;;;;;;5039999;28;20014;-93
2022/07/22 05:16:23;;;;;;;5.25;2.50;;;15.20;99.90;;;;;;5040335;28;20017;-95
2022/07/22 05:18:49;;;;;;;7.90;2.22;;;15.20;99.90;;;;;;5038951;28;20021;-94
2022/07/22 05:21:15;;;;;;;4.95;2.35;;;15.20;99.90;;;;;;5041034;28;20025;-94
2022/07/22 05:23:40;;;;;;;6.95;2.15;;;15.30;99.90;;;;;;5040718;28;20033;-94
2022/07/22 05:26:08;;;;;;;4.78;1.80;;;15.20;99.90;;;;;;5040785;28;20053;-92
2022/07/22 05:28:33;;;;;;;8.40;2.42;;;15.20;99.90;;;;;;5038849;28;20030;-94
2022/07/22 05:30:59;;;;;;;5.22;2.85;;;15.20;99.90;;;;;;5040261;28;20014;-93
2022/07/22 05:33:25;;;;;;;7.18;2.00;;;15.20;99.90;;;;;;5040404;28;20304;-93
2022/07/22 05:35:51;;;;;;;5.75;2.25;;;15.30;99.90;;;;;;5038988;28;20017;-96
2022/07/22 05:38:17;;;;;;;8.45;2.30;;;15.30;99.90;;;;;;5037744;28;20044;-94
2022/07/22 05:40:43;;;;;;;7.93;2.88;;;15.30;99.90;;;;;;5025292;28;20105;-95
2022/07/22 05:43:08;;;;;;;5.57;2.35;;;15.20;99.90;;;;;;5017849;28;20040;-94
2022/07/22 05:45:34;;;;;;;7.95;2.72;;;15.30;99.90;;;;;;5016530;28;20025;-95
2022/07/22 05:48:00;;;;;;;7.20;2.22;;;15.20;99.90;;;;;;5020469;28;20208;-95
2022/07/22 05:50:28;;;;;;;2.80;2.13;;;15.30;99.90;;;;;;5019368;28;20095;-94
2022/07/22 05:52:54;;;;;;;5.05;2.35;;;15.30;99.90;;;;;;5019708;28;20052;-94
2022/07/22 05:55:19;;;;;;;10.35;2.65;;;15.30;99.90;;;;;;5020479;28;20029;-94
2022/07/22 05:57:45;;;;;;;6.43;2.58;;;15.30;99.90;;;;;;5017901;28;20040;-95
2022/07/22 06:00:11;;;;;;;8.57;2.70;;;15.20;99.90;;;;;;5017086;28;20276;-94
2022/07/22 06:02:37;;;;;;;8.90;2.95;;;15.20;99.90;;;;;;5018829;28;20033;-95
2022/07/22 06:05:03;;;;;;;11.18;3.25;;;15.20;99.90;;;;;;5037314;28;20033;-94
2022/07/22 06:07:29;;;;;;;5.90;3.28;;;15.10;99.90;;;;;;5018816;28;20017;-96
2022/07/22 06:09:55;;;;;;;7.53;3.85;;;15.10;99.90;;;;;;5020146;28;20030;-96
2022/07/22 06:12:21;;;;;;;10.35;3.00;;;15.10;99.90;;;;;;5018915;28;20030;-95
2022/07/22 06:14:46;;;;;;;6.03;2.70;;;15.10;99.90;;;;;;5018060;28;20183;-96
2022/07/22 06:17:13;;;;;;;6.75;2.88;;;15.10;99.90;;;;;;5016999;28;20025;-94
2022/07/22 06:19:39;;;;;;;6.18;2.85;;;15.10;99.90;;;;;;5016037;28;20029;-95
2022/07/22 06:22:05;;;;;;;7.38;3.20;;;15.10;99.90;;;;;;5017715;28;20049;-96
2022/07/22 06:24:30;;;;;;;6.95;3.25;;;15.10;99.90;;;;;;5019629;28;20041;-95
2022/07/22 06:26:56;;;;;;;5.97;3.08;;;15.00;99.90;;;;;;5016171;28;20118;-96
2022/07/22 06:29:22;;;;;;;11.27;3.63;;;15.00;99.90;;;;;;5016016;28;20034;-96
2022/07/22 06:31:48;;;;;;;6.50;3.20;;;15.00;99.90;;;;;;5019557;28;20025;-95
2022/07/22 06:34:14;;;;;;;10.57;3.38;;;15.00;99.90;;;;;;5017225;28;20070;-96
2022/07/22 06:36:41;;;;;;;11.23;3.40;;;14.90;99.90;;;;;;5020727;28;20108;-90
2022/07/22 06:39:07;;;;;;;10.90;4.18;;;14.80;99.90;;;;;;5024245;28;20021;-94
2022/07/22 06:41:32;;;;;;;5.03;3.22;;;14.80;99.90;;;;;;5026919;28;20029;-95
2022/07/22 06:43:58;;;;;;;7.20;3.88;;;14.70;99.90;;;;;;5016927;28;20053;-94
2022/07/22 06:46:24;;;;;;;5.03;3.25;;;14.70;99.90;;;;;;5023122;28;20022;-94
2022/07/22 06:48:49;;;;;;;9.60;3.63;;;14.70;99.90;;;;;;5034033;28;20307;-91
2022/07/22 06:51:15;;;;;;;15.73;3.53;;;14.60;99.90;;;;;;5037979;28;20025;-93
2022/07/22 06:53:41;;;;;;;5.90;3.50;;;14.60;99.90;;;;;;5041105;28;20076;-88
2022/07/22 06:56:07;;;;;;;10.82;3.60;;;14.60;99.90;;;;;;5041190;28;20033;-92
2022/07/22 06:58:33;;;;;;;6.40;3.35;;;14.60;99.90;;;;;;5038149;28;20056;-91
2022/07/22 07:00:59;;;;;;;7.15;3.40;;;14.60;99.90;;;;;;5039871;28;20013;-87
2022/07/22 07:03:25;;;;;;;7.85;3.70;;;14.60;99.90;;;;;;5041675;28;20075;-94
2022/07/22 07:05:52;;;;;;;4.65;3.42;;;14.60;99.90;;;;;;5035992;28;20025;-94
2022/07/22 07:08:18;;;;;;;8.23;3.45;;;14.60;99.90;;;;;;5040097;28;20025;-95
2022/07/22 07:10:44;;;;;;;6.20;3.15;;;14.60;99.90;;;;;;5037424;28;20037;-94
2022/07/22 07:13:09;;;;;;;7.43;3.20;;;14.60;99.90;;;;;;5036561;28;20027;-96
2022/07/22 07:15:35;;;;;;;9.25;3.45;;;14.70;99.90;;;;;;5025679;28;20106;-95
2022/07/22 07:18:11;;;;;;;9.13;3.75;;;14.70;99.90;;;;;;5032367;28;20035;-96
2022/07/22 07:20:37;;;;;;;9.40;4.00;;;14.70;99.90;;;;;;5042395;28;20040;-90
2022/07/22 07:23:04;;;;;;;9.02;3.85;;;14.70;99.90;;;;;;5042439;28;20079;-90
2022/07/22 07:25:29;;;;;;;7.78;3.60;;;14.70;99.90;;;;;;5042523;28;20037;-91
2022/07/22 07:27:56;;;;;;;6.43;3.58;;;14.70;99.90;;;;;;5042283;28;20112;-89
2022/07/22 07:30:21;;;;;;;4.53;3.35;;;14.80;99.90;;;;;;5036146;28;20478;-92
2022/07/22 07:32:48;;;;;;;7.10;3.22;;;14.70;99.90;;;;;;5037581;28;20076;-94
2022/07/22 07:35:13;;;;;;;8.20;3.10;;;14.70;99.90;;;;;;5035659;28;20041;-94
2022/07/22 07:37:39;;;;;;;5.10;2.90;;;14.70;99.90;;;;;;5038938;28;20037;-94
2022/07/22 07:40:06;;;;;;;7.47;3.05;;;14.60;99.90;;;;;;5039641;28;20038;-96
2022/07/22 07:42:32;;;;;;;6.10;2.60;;;14.60;99.90;;;;;;5040350;28;20028;-94
2022/07/22 07:44:57;;;;;;;6.05;2.97;;;14.60;99.90;;;;;;5042170;28;20022;-93
2022/07/22 07:47:23;;;;;;;3.42;2.85;;;14.60;99.90;;;;;;5039797;28;20021;-94
2022/07/22 07:49:49;;;;;;;6.32;3.55;;;14.50;99.90;;;;;;5042226;28;20029;-93
2022/07/22 07:52:17;;;;;;;5.72;3.38;;;14.50;99.90;;;;;;5042525;28;20033;-91
2022/07/22 07:54:43;;;;;;;9.13;3.00;;;14.50;99.90;;;;;;5037382;28;20044;-92
2022/07/22 07:57:11;;;;;;;5.65;2.75;;;14.50;99.90;;;;;;5041362;28;20010;-91
2022/07/22 07:59:38;;;;;;;5.05;2.75;;;14.50;99.90;;;;;;5042011;28;20017;-93
2022/07/22 08:02:04;;;;;;;3.58;2.40;;;14.50;99.90;;;;;;5042116;28;20010;-93
2022/07/22 08:04:30;;;;;;;3.58;2.50;;;14.40;99.90;;;;;;5041836;28;20045;-91
2022/07/22 08:06:57;;;;;;;2.70;2.30;;;14.40;99.90;;;;;;5042143;28;20010;-92
2022/07/22 08:09:35;;;;;;;6.53;2.70;;;14.40;99.90;;;;;;5042251;28;20041;-91
2022/07/22 08:12:01;;;;;;;3.72;2.92;;;14.40;99.90;;;;;;5042682;28;20021;-92
2022/07/22 08:14:29;;;;;;;6.10;2.45;;;14.40;99.90;;;;;;5042435;28;20051;-93
2022/07/22 08:17:02;;;;;;;6.30;2.88;;;14.40;99.90;;;;;;5042329;28;20018;-93
2022/07/22 08:19:30;;;;;;;6.20;3.30;;;14.50;99.90;;;;;;5038899;28;20044;-92
2022/07/22 08:21:55;;;;;;;5.68;2.50;;;14.50;99.90;;;;;;5042027;28;20021;-93
2022/07/22 08:24:21;;;;;;;6.95;2.58;;;14.50;99.90;;;;;;5041558;28;20017;-93
2022/07/22 08:26:47;;;;;;;5.28;2.38;;;14.50;99.90;;;;;;5041134;28;20037;-92
2022/07/22 08:29:19;;;;;;;3.40;2.17;;;14.50;99.90;;;;;;5040050;28;20044;-95
2022/07/22 08:31:45;;;;;;;3.78;2.40;;;14.60;99.90;;;;;;5041250;28;20014;-93
2022/07/22 08:34:11;;;;;;;3.42;2.45;;;14.60;99.90;;;;;;5038633;28;20093;-92
2022/07/22 08:36:37;;;;;;;4.47;2.55;;;14.60;99.90;;;;;;5041227;28;20089;-92
2022/07/22 08:39:05;;;;;;;4.13;2.13;;;14.60;99.90;;;;;;5039722;28;20022;-92
2022/07/22 08:41:37;;;;;;;3.30;1.95;;;14.60;99.90;;;;;;5058153;28;20013;-91
2022/07/22 08:44:08;;;;;;;3.65;2.10;;;14.60;99.90;;;;;;5038792;28;20032;-93
2022/07/22 08:46:34;;;;;;;5.72;2.42;;;14.60;99.90;;;;;;5040280;28;20017;-92
2022/07/22 08:49:01;;;;;;;2.42;2.20;;;14.70;99.90;;;;;;5040704;28;20031;-91
2022/07/22 08:51:27;;;;;;;3.25;2.20;;;14.70;99.90;;;;;;5040769;28;20021;-94
2022/07/22 08:53:56;;;;;;;2.08;1.80;;;14.70;99.90;;;;;;5040862;28;20075;-92
2022/07/22 08:56:22;;;;;;;3.65;2.50;;;14.80;99.90;;;;;;5040939;28;20029;-91
2022/07/22 08:58:48;;;;;;;3.55;2.20;;;14.80;99.90;;;;;;5040074;28;20045;-95
2022/07/22 09:01:16;;;;;;;4.10;2.20;;;14.80;99.90;;;;;;5024119;28;20018;-93
2022/07/22 09:03:55;;;;;;;3.35;2.35;;;14.80;99.90;;;;;;5034915;28;20030;-93
2022/07/22 09:06:25;;;;;;;4.60;3.00;;;14.80;99.90;;;;;;5037147;28;20053;-94
2022/07/22 09:09:06;;;;;;;8.05;2.60;;;14.80;99.90;;;;;;5039806;28;20140;-93
2022/07/22 09:11:32;;;;;;;2.33;2.03;;;14.80;99.90;;;;;;5033240;28;20529;-95
2022/07/22 09:14:01;;;;;;;6.45;2.63;;;14.80;99.90;;;;;;5033138;28;20124;-96
2022/07/22 09:16:46;;;;;;;6.07;2.95;;;14.90;99.90;;;;;;5023440;28;20036;-96
2022/07/22 09:19:13;;;;;;;4.65;2.75;;;14.90;99.90;;;;;;5018196;28;20025;-95
2022/07/22 09:21:41;;;;;;;3.45;2.58;;;14.90;99.90;;;;;;5020810;28;20025;-96
2022/07/22 09:24:27;;;;;;;5.30;3.15;;;14.90;99.90;;;;;;5022374;28;20537;-95
2022/07/22 09:26:54;;;;;;;3.63;2.80;;;14.90;99.90;;;;;;5022917;28;20042;-95
2022/07/22 09:29:20;;;;;;;3.83;2.33;;;14.90;99.90;;;;;;5029197;28;20025;-94
2022/07/22 09:31:51;;;;;;;3.35;2.17;;;14.90;99.90;;;;;;5029032;28;20033;-94
2022/07/22 09:34:31;;;;;;;4.30;2.33;;;14.80;99.90;;;;;;5022796;28;20117;-96
2022/07/22 09:36:59;;;;;;;3.42;2.72;;;14.90;99.90;;;;;;5008979;28;20030;-96
2022/07/22 09:39:33;;;;;;;4.13;2.50;;;14.90;99.90;;;;;;5047377;28;20040;-94
2022/07/22 09:42:03;;;;;;;7.70;2.60;;;15.00;99.90;;;;;;5020384;28;20108;-96
2022/07/22 09:44:29;;;;;;;4.22;2.70;;;15.00;99.90;;;;;;5036623;28;20064;-96
2022/07/22 09:46:54;;;;;;;6.88;2.97;;;15.10;99.90;;;;;;5019414;28;20022;-96
2022/07/22 09:49:39;;;;;;;8.23;3.03;;;15.10;99.90;;;;;;5021389;28;20041;-94
2022/07/22 09:52:06;;;;;;;4.47;4.05;;;15.20;99.90;;;;;;5022030;28;20057;-93
2022/07/22 09:54:32;;;;;;;6.22;3.88;;;15.30;99.90;;;;;;5037634;28;20029;-94
2022/07/22 09:56:58;;;;;;;10.52;4.10;;;15.30;99.90;;;;;;5022788;28;20037;-94
2022/07/22 09:59:24;;;;;;;5.80;3.75;;;15.40;99.90;;;;;;5032809;28;20029;-96
2022/07/22 10:01:54;;;;;;;4.93;3.80;;;15.50;99.90;;;;;;5036269;28;20026;-93
2022/07/22 10:04:21;;;;;;;6.78;3.50;;;15.50;99.90;;;;;;5037374;28;20042;-92
2022/07/22 10:06:49;;;;;;;6.10;4.32;;;15.40;99.90;;;;;;5036650;28;20034;-91
2022/07/22 10:09:22;;;;;;;8.20;3.85;;;15.50;99.90;;;;;;5036685;28;20068;-91
2022/07/22 10:11:49;;;;;;;9.30;4.22;;;15.50;99.90;;;;;;5019484;28;20052;-92
2022/07/22 10:14:17;;;;;;;11.38;4.85;;;15.60;99.90;;;;;;5036158;28;20085;-90
2022/07/22 10:16:43;;;;;;;8.18;4.20;;;15.60;99.90;;;;;;5036415;28;20009;-90
2022/07/22 10:19:10;;;;;;;7.68;4.88;;;15.50;99.90;;;;;;5036120;28;20041;-91
2022/07/22 10:21:37;;;;;;;6.63;3.97;;;15.50;99.90;;;;;;5035779;28;20042;-92
2022/07/22 10:24:14;;;;;;;5.75;3.75;;;15.40;99.90;;;;;;5048532;28;20034;-96
2022/07/22 10:26:52;;;;;;;6.68;3.97;;;15.50;99.90;;;;;;5043062;28;20046;-94
2022/07/22 10:29:37;;;;;;;5.80;4.00;;;15.60;99.90;;;;;;5029265;28;20029;-94
2022/07/22 10:32:21;;;;;;;5.13;2.90;;;15.60;99.90;;;;;;5029140;28;20030;-93
2022/07/22 10:35:01;;;;;;;6.53;3.22;;;15.60;99.90;;;;;;5041848;28;20041;-91
2022/07/22 10:37:44;;;;;;;5.28;2.72;;;15.60;99.90;;;;;;5029539;28;20006;-92
2022/07/22 10:40:15;;;;;;;6.90;2.85;;;15.70;99.90;;;;;;5013896;28;20025;-96
2022/07/22 10:42:57;;;;;;;3.50;2.40;;;15.70;99.90;;;;;;5035576;28;20026;-96
2022/07/22 10:45:24;;;;;;;4.80;2.35;;;15.70;99.90;;;;;;5028111;28;20073;-95
2022/07/22 10:48:05;;;;;;;3.78;2.42;;;15.60;99.90;;;;;;5029358;28;20029;-94
2022/07/22 10:50:40;;;;;;;3.00;2.67;;;15.60;99.90;;;;;;5017437;28;20021;-93
2022/07/22 10:53:13;;;;;;;3.05;2.65;;;15.60;99.90;;;;;;5027616;28;20060;-93
2022/07/22 10:56:12;;;;;;;4.28;2.30;;;15.60;99.90;;;;;;5028642;28;20018;-92
2022/07/22 10:58:38;;;;;;;5.20;2.40;;;15.70;99.90;;;;;;5051275;28;20038;-92
2022/07/22 11:01:06;;;;;;;2.63;2.10;;;15.60;99.90;;;;;;5035457;28;20026;-92
2022/07/22 11:03:34;;;;;;;3.75;1.95;;;15.60;99.90;;;;;;5036267;28;20014;-91
2022/07/22 11:06:13;;;;;;;4.47;2.17;;;15.60;99.90;;;;;;5053396;28;20040;-94
2022/07/22 11:08:39;;;;;;;4.93;2.40;;;15.60;99.90;;;;;;5037793;28;20034;-91
2022/07/22 11:11:05;;;;;;;3.30;2.40;;;15.50;99.90;;;;;;5033916;28;20026;-92
2022/07/22 11:13:32;;;;;;;4.88;2.50;;;15.40;99.90;;;;;;5031241;28;20036;-95
2022/07/22 11:16:24;;;;;;;4.20;1.90;;;15.30;99.90;;;;;;5032855;28;20046;-92
2022/07/22 11:18:59;;;;;;;4.53;2.15;;;15.30;99.90;;;;;;5033914;28;20014;-91
2022/07/22 11:21:27;;;;;;;2.78;2.22;;;15.10;99.90;;;;;;5047552;28;20019;-94
2022/07/22 11:23:54;;;;;;;3.13;2.00;;;15.10;99.90;;;;;;5028790;28;20029;-95
2022/07/22 11:26:39;;;;;;;5.18;2.50;;;15.00;99.90;;;;;;5037979;28;20030;-93
2022/07/22 11:29:05;;;;;;;4.97;2.28;;;15.00;99.90;;;;;;5035499;28;20041;-94
2022/07/22 11:31:30;;;;;;;2.78;2.40;;;15.00;99.90;;;;;;5021526;28;20041;-95
2022/07/22 11:34:14;;;;;;;3.78;2.72;;;15.00;99.90;;;;;;5020067;28;20029;-94
2022/07/22 11:36:42;;;;;;;2.05;1.85;;;15.10;99.90;;;;;;5015036;28;20025;-93
2022/07/22 11:39:09;;;;;;;3.50;2.45;;;15.10;99.90;;;;;;5018278;28;20029;-93
2022/07/22 11:41:38;;;;;;;7.60;2.08;;;15.10;99.90;;;;;;5018486;28;20018;-94
2022/07/22 11:44:05;;;;;;;5.10;2.05;;;15.10;99.90;;;;;;5018608;28;20108;-93
2022/07/22 11:46:42;;;;;;;3.35;1.95;;;15.20;99.90;;;;;;5024537;28;20037;-94
2022/07/22 11:49:09;;;;;;;2.45;2.05;;;15.30;99.90;;;;;;5016998;28;20177;-94
2022/07/22 11:51:36;;;;;;;2.60;2.13;;;15.50;99.90;;;;;;5018267;28;20430;-95
2022/07/22 11:54:04;;;;;;;4.10;2.20;;;15.50;99.90;;;;;;5018464;28;20459;-95
2022/07/22 11:56:34;;;;;;;3.72;2.40;;;15.60;99.90;;;;;;4999558;28;20121;-91
2022/07/22 11:59:04;;;;;;;3.17;2.20;;;15.60;99.90;;;;;;5017961;28;20359;-95
2022/07/22 12:01:31;;;;;;;4.28;2.10;;;15.70;99.90;;;;;;5035991;28;20548;-93
2022/07/22 12:04:31;;;;;;;5.85;2.28;;;15.70;99.90;;;;;;5018106;28;20210;-92
2022/07/22 12:07:09;;;;;;;;;;;;;;;;;;;;;
2022/07/22 12:09:45;;;;;;;4.07;1.88;;;16.00;99.90;;;;;;5032409;28;20394;-91
2022/07/22 12:12:10;;;;;;;3.10;2.03;;;16.10;99.90;;;;;;5017198;28;20025;-93
2022/07/22 12:14:44;;;;;;;3.35;2.30;;;16.20;99.90;;;;;;5018039;28;20485;-94
2022/07/22 12:17:11;;;;;;;4.55;2.03;;;16.20;99.90;;;;;;5017415;28;20036;-93
2022/07/22 12:19:43;;;;;;;4.30;2.60;;;16.20;99.90;;;;;;5016254;28;20056;-93
2022/07/22 12:22:22;;;;;;;5.32;2.10;;;16.10;99.90;;;;;;5016887;28;20116;-93
2022/07/22 12:25:20;;;;;;;3.67;2.30;;;16.10;99.90;;;;;;5016460;28;20037;-92
2022/07/22 12:28:05;;;;;;;2.85;1.92;;;16.00;99.90;;;;;;4970450;28;20095;-92
2022/07/22 12:30:31;;;;;;;3.05;2.20;;;16.00;99.90;;;;;;4996771;28;20042;-91
2022/07/22 12:33:02;;;;;;;4.90;2.33;;;16.00;99.90;;;;;;4998845;28;20563;-92
2022/07/22 12:35:28;;;;;;;2.50;2.30;;;16.00;99.90;;;;;;4999208;28;20030;-94
2022/07/22 12:41:30;;;;;;;5.43;3.00;;;15.90;99.90;;;;;;4981771;28;20381;-94
2022/07/22 12:43:59;;;;;;;5.40;2.95;;;15.80;99.90;;;;;;4997682;28;20041;-93
2022/07/22 12:46:35;;;;;;;4.00;2.70;;;15.80;99.90;;;;;;4998935;28;20483;-93
2022/07/22 12:49:01;;;;;;;4.00;3.15;;;15.80;99.90;;;;;;4998036;28;20071;-95
2022/07/22 12:51:26;;;;;;;5.05;3.10;;;15.80;99.90;;;;;;4997997;28;20418;-94
2022/07/22 12:54:03;;;;;;;6.63;2.95;;;15.90;99.90;;;;;;4998592;28;20544;-93